createdAt,value
2023-04-22T00:02:09.710Z,101211.31
2023-04-22T00:04:38.453Z,101202.31
2023-04-22T00:07:06.719Z,101203.13
2023-04-22T00:09:35.039Z,101193.16
2023-04-22T00:12:03.358Z,101199.41
2023-04-22T00:14:31.470Z,101180.59
2023-04-22T00:17:00.178Z,101190.31
2023-04-22T00:19:30.708Z,101180.44
2023-04-22T00:21:58.775Z,101175.84
2023-04-22T00:24:26.883Z,101177.59
2023-04-22T00:26:54.984Z,101161.38
2023-04-22T00:29:23.125Z,101164.94
2023-04-22T00:31:51.419Z,101154.13
2023-04-22T00:34:19.716Z,101156.81
2023-04-22T00:36:49.324Z,101152.31
2023-04-22T00:39:17.409Z,101147.78
2023-04-22T00:41:45.644Z,101147.78
2023-04-22T00:44:13.928Z,101145.03
2023-04-22T00:46:42.282Z,101141.47
2023-04-22T00:49:10.372Z,101140.69
2023-04-22T00:51:38.553Z,101135.31
2023-04-22T00:54:08.661Z,101137.09
2023-04-22T00:56:37.506Z,101136.22
2023-04-22T00:59:05.684Z,101131.78
2023-04-22T01:01:34.315Z,101131.78
2023-04-22T01:04:02.982Z,101126.59
2023-04-22T01:06:32.517Z,101130.22
2023-04-22T01:09:00.671Z,101121.28
2023-04-22T01:11:30.174Z,101112.34
2023-04-22T01:13:58.289Z,101116.84
2023-04-22T01:16:29.441Z,101119.63
2023-04-22T01:18:57.648Z,101117.88
2023-04-22T01:21:25.974Z,101109.97
2023-04-22T01:23:55.643Z,101113.59
2023-04-22T01:26:23.865Z,101104.66
2023-04-22T01:28:52.141Z,101106.41
2023-04-22T01:31:20.375Z,101106.47
2023-04-22T01:33:48.686Z,101105.78
2023-04-22T01:36:17.672Z,101096.84
2023-04-22T01:38:46.064Z,101097.72
2023-04-22T01:41:15.817Z,101093.38
2023-04-22T01:43:44.180Z,101089.88
2023-04-22T01:46:12.389Z,101090.97
2023-04-22T01:48:41.400Z,101095.72
2023-04-22T01:51:09.455Z,101086.00
2023-04-22T01:53:37.586Z,101079.66
2023-04-22T01:56:05.947Z,101086.69
2023-04-22T01:58:35.883Z,101075.09
2023-04-22T02:01:03.998Z,101074.22
2023-04-22T02:03:32.183Z,101067.09
2023-04-22T02:06:00.371Z,101074.38
2023-04-22T02:08:28.534Z,101067.28
2023-04-22T02:10:56.663Z,101067.28
2023-04-22T02:13:24.780Z,101070.03
2023-04-22T02:15:54.327Z,101056.66
2023-04-22T02:18:22.416Z,101066.44
2023-04-22T02:20:50.772Z,101065.56
2023-04-22T02:23:18.868Z,101065.53
2023-04-22T02:25:50.700Z,101060.28
2023-04-22T02:28:19.157Z,101053.19
2023-04-22T02:30:47.790Z,101049.69
2023-04-22T02:33:17.223Z,101053.34
2023-04-22T02:35:45.329Z,101052.47
2023-04-22T02:38:13.452Z,101051.69
2023-04-22T02:40:41.608Z,101041.81
2023-04-22T02:43:09.714Z,101038.25
2023-04-22T02:45:37.858Z,101040.06
2023-04-22T02:48:06.218Z,101037.53
2023-04-22T02:50:35.810Z,101032.22
2023-04-22T02:53:03.898Z,101026.91
2023-04-22T02:55:31.991Z,101019.81
2023-04-22T02:58:00.077Z,101018.03
2023-04-22T03:00:28.389Z,101013.69
2023-04-22T03:02:56.787Z,101017.25
2023-04-22T03:05:25.242Z,101016.31
2023-04-22T03:07:54.738Z,101021.69
2023-04-22T03:10:22.854Z,101017.16
2023-04-22T03:12:50.943Z,101008.31
2023-04-22T03:15:21.210Z,101003.97
2023-04-22T03:17:49.895Z,100996.88
2023-04-22T03:20:18.170Z,100991.50
2023-04-22T03:22:46.284Z,100994.81
2023-04-22T03:25:15.978Z,100983.06
2023-04-22T03:27:44.087Z,100979.31
2023-04-22T03:30:12.747Z,100973.06
2023-04-22T03:32:40.874Z,100975.59
2023-04-22T03:35:09.647Z,100969.19
2023-04-22T03:37:37.728Z,100962.69
2023-04-22T03:40:07.606Z,100960.66
2023-04-22T03:42:37.039Z,100955.97
2023-04-22T03:45:05.845Z,100950.44
2023-04-22T03:47:34.034Z,100941.28
2023-04-22T03:50:02.231Z,100946.50
2023-04-22T03:52:30.329Z,100942.69
2023-04-22T03:54:58.400Z,100935.50
2023-04-22T03:57:26.540Z,100929.84
2023-04-22T03:59:56.182Z,100930.59
2023-04-22T04:02:24.430Z,100933.09
2023-04-22T04:04:53.038Z,100923.13
2023-04-22T04:07:21.387Z,100916.63
2023-04-22T04:09:49.479Z,100914.66
2023-04-22T04:12:20.670Z,100915.34
2023-04-22T04:14:48.737Z,100913.44
2023-04-22T04:17:18.202Z,100912.41
2023-04-22T04:19:46.281Z,100914.09
2023-04-22T04:22:14.986Z,100910.28
2023-04-22T04:24:43.057Z,100912.59
2023-04-22T04:27:11.952Z,100904.31
2023-04-22T04:29:41.403Z,100904.91
2023-04-22T04:32:09.947Z,100910.03
2023-04-22T04:34:39.599Z,100904.41
2023-04-22T04:37:07.994Z,100907.69
2023-04-22T04:39:36.132Z,100894.78
2023-04-22T04:42:04.323Z,100896.22
2023-04-22T04:44:32.714Z,100885.91
2023-04-22T04:47:00.924Z,100897.25
2023-04-22T04:49:30.596Z,100901.53
2023-04-22T04:52:00.132Z,100901.94
2023-04-22T04:54:28.209Z,100898.81
2023-04-22T04:56:57.336Z,100902.72
2023-04-22T04:59:26.104Z,100898.59
2023-04-22T05:01:54.270Z,100893.63
2023-04-22T05:04:23.312Z,100895.03
2023-04-22T05:06:51.606Z,100898.31
2023-04-22T05:09:21.115Z,100900.63
2023-04-22T05:11:49.211Z,100897.59
2023-04-22T05:14:17.256Z,100898.16
2023-04-22T05:16:45.485Z,100906.88
2023-04-22T05:19:13.588Z,100905.50
2023-04-22T05:21:41.784Z,100901.50
2023-04-22T05:24:09.839Z,100907.25
2023-04-22T05:26:39.366Z,100894.38
2023-04-22T05:29:08.041Z,100897.66
2023-04-22T05:31:36.251Z,100891.78
2023-04-22T05:34:04.441Z,100897.66
2023-04-22T05:36:32.975Z,100895.44
2023-04-22T05:39:01.128Z,100890.34
2023-04-22T05:41:29.183Z,100894.88
2023-04-22T05:43:58.652Z,100894.31
2023-04-22T05:46:27.020Z,100891.56
2023-04-22T05:48:56.064Z,100889.41
2023-04-22T05:51:24.686Z,100882.78
2023-04-22T05:53:52.775Z,100890.38
2023-04-22T05:56:21.448Z,100877.84
2023-04-22T05:58:49.554Z,100867.03
2023-04-22T06:01:19.040Z,100868.84
2023-04-22T06:03:47.404Z,100872.31
2023-04-22T06:06:15.677Z,100868.72
2023-04-22T06:08:43.769Z,100864.50
2023-04-22T06:11:11.884Z,100859.38
2023-04-22T06:13:39.942Z,100853.94
2023-04-22T06:18:38.715Z,100865.63
2023-04-22T06:21:07.062Z,100854.94
2023-04-22T06:23:35.231Z,100855.59
2023-04-22T06:26:03.433Z,100848.16
2023-04-22T06:28:31.610Z,100854.25
2023-04-22T06:30:59.694Z,100848.63
2023-04-22T06:33:27.762Z,100843.47
2023-04-22T06:35:57.245Z,100837.28
2023-04-22T06:38:25.367Z,100830.63
2023-04-22T06:40:53.460Z,100830.50
2023-04-22T06:43:21.600Z,100834.00
2023-04-22T06:45:49.655Z,100840.75
2023-04-22T06:48:17.742Z,100852.84
2023-04-22T06:50:45.819Z,100837.16
2023-04-22T06:53:15.300Z,100819.84
2023-04-22T06:55:43.423Z,100837.75
2023-04-22T06:58:11.478Z,100828.31
2023-04-22T07:00:39.572Z,100821.91
2023-04-22T07:03:07.717Z,100812.03
2023-04-22T07:05:37.780Z,100801.25
2023-04-22T07:08:06.667Z,100797.63
2023-04-22T07:10:36.301Z,100800.75
2023-04-22T07:13:04.362Z,100790.53
2023-04-22T07:15:32.602Z,100793.50
2023-04-22T07:18:00.720Z,100789.56
2023-04-22T07:20:28.789Z,100784.03
2023-04-22T07:22:56.863Z,100789.84
2023-04-22T07:25:24.934Z,100787.91
2023-04-22T07:27:54.433Z,100791.50
2023-04-22T07:30:22.593Z,100789.97
2023-04-22T07:32:50.716Z,100784.88
2023-04-22T07:35:19.266Z,100796.69
2023-04-22T07:37:47.341Z,100800.97
2023-04-22T07:40:15.497Z,100802.56
2023-04-22T07:42:43.629Z,100805.56
2023-04-22T07:45:13.467Z,100813.59
2023-04-22T07:47:41.606Z,100824.50
2023-04-22T07:50:10.497Z,100827.25
2023-04-22T07:52:38.596Z,100812.22
2023-04-22T07:55:07.932Z,100807.97
2023-04-22T07:57:38.669Z,100806.81
2023-04-22T08:00:09.874Z,100797.34
2023-04-22T08:02:39.588Z,100790.44
2023-04-22T08:05:08.613Z,100785.06
2023-04-22T08:07:36.797Z,100783.16
2023-04-22T08:10:05.830Z,100779.19
2023-04-22T08:12:33.944Z,100780.91
2023-04-22T08:15:02.021Z,100769.66
2023-04-22T08:17:30.352Z,100770.41
2023-04-22T08:19:59.833Z,100772.28
2023-04-22T08:22:27.917Z,100756.34
2023-04-22T08:24:56.127Z,100757.22
2023-04-22T08:27:24.253Z,100756.38
2023-04-22T08:29:52.334Z,100756.78
2023-04-22T08:32:20.553Z,100754.16
2023-04-22T08:34:51.941Z,100752.75
2023-04-22T08:37:23.421Z,100747.09
2023-04-22T08:39:52.056Z,100749.44
2023-04-22T08:42:21.052Z,100758.69
2023-04-22T08:44:50.068Z,100745.25
2023-04-22T08:47:20.088Z,100741.88
2023-04-22T08:49:48.296Z,100739.16
2023-04-22T08:52:16.371Z,100739.72
2023-04-22T08:54:46.001Z,100737.56
2023-04-22T08:57:14.965Z,100724.78
2023-04-22T08:59:43.281Z,100724.84
2023-04-22T09:02:15.251Z,100721.91
2023-04-22T09:04:43.669Z,100722.41
2023-04-22T09:07:12.049Z,100723.97
2023-04-22T09:09:40.514Z,100716.06
2023-04-22T09:12:10.144Z,100713.16
2023-04-22T09:14:39.318Z,100708.16
2023-04-22T09:17:07.391Z,100705.63
2023-04-22T09:19:35.511Z,100711.25
2023-04-22T09:22:03.626Z,100695.81
2023-04-22T09:24:31.727Z,100700.13
2023-04-22T09:27:03.329Z,100704.41
2023-04-22T09:29:32.821Z,100704.72
2023-04-22T09:32:10.091Z,100710.59
2023-04-22T09:34:47.520Z,100710.94
2023-04-22T09:37:15.585Z,100704.59
2023-04-22T09:39:43.900Z,100702.00
2023-04-22T09:42:12.305Z,100698.38
2023-04-22T09:44:41.783Z,100705.78
2023-04-22T09:47:11.922Z,100703.88
2023-04-22T09:49:40.628Z,100699.56
2023-04-22T09:52:08.854Z,100698.38
2023-04-22T09:54:38.362Z,100696.50
2023-04-22T09:57:13.648Z,100691.50
2023-04-22T09:59:43.108Z,100695.22
2023-04-22T10:02:11.371Z,100693.50
2023-04-22T10:04:39.541Z,100677.00
2023-04-22T10:07:08.166Z,100675.41
2023-04-22T10:09:36.382Z,100669.72
2023-04-22T10:12:05.914Z,100669.84
2023-04-22T10:14:33.973Z,100665.66
2023-04-22T10:17:04.975Z,100661.28
2023-04-22T10:19:34.081Z,100657.38
2023-04-22T10:22:04.967Z,100657.50
2023-04-22T10:24:37.124Z,100653.16
2023-04-22T10:27:06.636Z,100654.38
2023-04-22T10:29:38.863Z,100656.03
2023-04-22T10:32:25.445Z,100653.34
2023-04-22T10:35:09.320Z,100648.16
2023-04-22T10:37:39.035Z,100641.22
2023-04-22T10:40:09.267Z,100653.97
2023-04-22T10:42:39.977Z,100646.19
2023-04-22T10:45:08.886Z,100648.94
2023-04-22T10:47:40.496Z,100642.47
2023-04-22T10:50:23.942Z,100636.91
2023-04-22T10:52:53.757Z,100638.53
2023-04-22T10:55:22.458Z,100635.19
2023-04-22T10:57:51.910Z,100629.38
2023-04-22T11:00:52.440Z,100625.34
2023-04-22T11:03:29.794Z,100617.03
2023-04-22T11:06:17.892Z,100624.59
2023-04-22T11:08:47.574Z,100623.88
2023-04-22T11:11:17.540Z,100616.34
2023-04-22T11:13:47.447Z,100607.03
2023-04-22T11:16:15.573Z,100608.03
2023-04-22T11:18:47.735Z,100598.84
2023-04-22T11:21:16.206Z,100595.97
2023-04-22T11:23:51.073Z,100598.22
2023-04-22T11:26:19.288Z,100591.47
2023-04-22T11:28:47.791Z,100580.53
2023-04-22T11:31:16.094Z,100588.97
2023-04-22T11:33:45.841Z,100586.66
2023-04-22T11:36:14.920Z,100584.91
2023-04-22T11:38:43.093Z,100570.25
2023-04-22T11:41:11.272Z,100568.91
2023-04-22T11:43:47.663Z,100575.69
2023-04-22T11:46:15.830Z,100571.13
2023-04-22T11:48:45.726Z,100565.41
2023-04-22T11:51:13.950Z,100563.38
2023-04-22T11:53:51.245Z,100564.00
2023-04-22T11:56:19.346Z,100564.44
2023-04-22T11:58:48.473Z,100559.25
2023-04-22T12:01:16.546Z,100563.47
2023-04-22T12:03:46.296Z,100556.72
2023-04-22T12:06:14.541Z,100570.88
2023-04-22T12:08:44.819Z,100555.81
2023-04-22T12:11:13.379Z,100551.41
2023-04-22T12:13:43.503Z,100553.06
2023-04-22T12:16:13.072Z,100554.97
2023-04-22T12:18:42.707Z,100545.22
2023-04-22T12:21:13.189Z,100554.44
2023-04-22T12:23:44.877Z,100545.59
2023-04-22T12:26:13.437Z,100534.28
2023-04-22T12:28:42.277Z,100546.22
2023-04-22T12:31:10.589Z,100547.53
2023-04-22T12:33:39.278Z,100547.81
2023-04-22T12:36:10.869Z,100537.25
2023-04-22T12:38:40.621Z,100525.59
2023-04-22T12:41:09.149Z,100536.72
2023-04-22T12:43:37.782Z,100544.81
2023-04-22T12:46:07.093Z,100525.53
2023-04-22T12:48:36.983Z,100524.91
2023-04-22T12:51:05.273Z,100525.75
2023-04-22T12:53:33.358Z,100528.28
2023-04-22T12:56:02.874Z,100525.66
2023-04-22T12:58:30.988Z,100519.16
2023-04-22T13:00:59.157Z,100518.91
2023-04-22T13:03:27.604Z,100512.22
2023-04-22T13:05:56.036Z,100514.59
2023-04-22T13:08:24.166Z,100511.44
2023-04-22T13:10:52.273Z,100504.13
2023-04-22T13:13:21.753Z,100504.88
2023-04-22T13:15:53.169Z,100491.59
2023-04-22T13:18:23.046Z,100493.78
2023-04-22T13:20:51.353Z,100493.84
2023-04-22T13:23:21.417Z,100486.56
2023-04-22T13:25:49.577Z,100484.53
2023-04-22T13:28:17.696Z,100490.72
2023-04-22T13:30:47.211Z,100489.53
2023-04-22T13:33:15.579Z,100473.56
2023-04-22T13:35:43.912Z,100475.78
2023-04-22T13:38:12.056Z,100468.25
2023-04-22T13:40:40.185Z,100462.03
2023-04-22T13:43:09.453Z,100465.09
2023-04-22T13:45:37.577Z,100448.63
2023-04-22T13:48:07.265Z,100452.75
2023-04-22T13:50:35.380Z,100448.16
2023-04-22T13:53:04.808Z,100440.25
2023-04-22T13:55:34.318Z,100447.69
2023-04-22T13:58:02.632Z,100443.50
2023-04-22T14:00:30.743Z,100437.22
2023-04-22T14:02:58.926Z,100440.19
2023-04-22T14:05:28.565Z,100433.66
2023-04-22T14:07:57.242Z,100433.59
2023-04-22T14:10:27.875Z,100426.53
2023-04-22T14:12:56.750Z,100425.59
2023-04-22T14:15:25.362Z,100432.88
2023-04-22T14:17:54.720Z,100427.81
2023-04-22T14:20:25.053Z,100430.03
2023-04-22T14:22:54.743Z,100426.38
2023-04-22T14:25:22.878Z,100426.38
2023-04-22T14:27:50.954Z,100416.66
2023-04-22T14:30:20.381Z,100405.34
2023-04-22T14:32:48.619Z,100411.00
2023-04-22T14:35:16.924Z,100421.03
2023-04-22T14:37:45.082Z,100402.31
2023-04-22T14:40:14.868Z,100401.97
2023-04-22T14:42:42.991Z,100406.97
2023-04-22T14:45:11.940Z,100400.38
2023-04-22T14:47:40.069Z,100404.72
2023-04-22T14:50:08.810Z,100391.31
2023-04-22T14:52:36.952Z,100394.03
2023-04-22T14:55:15.327Z,100395.31
2023-04-22T14:57:50.584Z,100392.88
2023-04-22T15:00:18.938Z,100381.81
2023-04-22T15:02:47.233Z,100389.59
2023-04-22T15:05:15.421Z,100376.41
2023-04-22T15:07:43.729Z,100374.38
2023-04-22T15:10:12.092Z,100377.59
2023-04-22T15:12:40.219Z,100370.59
2023-04-22T15:15:13.230Z,100366.03
2023-04-22T15:17:41.835Z,100362.91
2023-04-22T15:20:11.054Z,100357.03
2023-04-22T15:22:40.907Z,100351.91
2023-04-22T15:25:09.893Z,100350.09
2023-04-22T15:27:38.775Z,100344.91
2023-04-22T15:30:10.843Z,100347.09
2023-04-22T15:32:40.123Z,100335.78
2023-04-22T15:35:09.172Z,100340.84
2023-04-22T15:37:37.318Z,100331.94
2023-04-22T15:40:07.021Z,100342.25
2023-04-22T15:42:35.142Z,100327.53
2023-04-22T15:45:03.981Z,100321.03
2023-04-22T15:47:36.601Z,100325.47
2023-04-22T15:50:08.673Z,100318.91
2023-04-22T15:52:37.467Z,100313.03
2023-04-22T15:55:06.028Z,100301.16
2023-04-22T15:57:34.988Z,100314.03
2023-04-22T16:00:11.840Z,100304.97
2023-04-22T16:02:43.404Z,100297.00
2023-04-22T16:05:12.539Z,100297.81
2023-04-22T16:07:40.738Z,100299.25
2023-04-22T16:10:10.234Z,100304.66
2023-04-22T16:12:38.308Z,100292.75
2023-04-22T16:15:07.871Z,100292.44
2023-04-22T16:17:36.102Z,100288.00
2023-04-22T16:20:06.524Z,100288.56
2023-04-22T16:22:34.615Z,100282.97
2023-04-22T16:25:03.113Z,100287.34
2023-04-22T16:27:31.869Z,100276.63
2023-04-22T16:29:59.995Z,100270.94
2023-04-22T16:32:28.288Z,100267.44
2023-04-22T16:34:56.348Z,100274.63
2023-04-22T16:37:26.534Z,100261.44
2023-04-22T16:39:54.646Z,100269.44
2023-04-22T16:42:22.749Z,100257.88
2023-04-22T16:44:51.440Z,100259.19
2023-04-22T16:47:19.655Z,100254.66
2023-04-22T16:49:47.790Z,100244.41
2023-04-22T16:52:15.987Z,100246.03
2023-04-22T16:54:45.560Z,100248.19
2023-04-22T16:57:13.706Z,100247.06
2023-04-22T16:59:42.048Z,100240.78
2023-04-22T17:02:10.541Z,100246.34
2023-04-22T17:04:38.715Z,100236.47
2023-04-22T17:07:06.832Z,100234.69
2023-04-22T17:09:34.867Z,100239.72
2023-04-22T17:12:04.589Z,100239.22
2023-04-22T17:14:32.679Z,100226.91
2023-04-22T17:17:00.789Z,100224.22
2023-04-22T17:19:28.911Z,100218.81
2023-04-22T17:21:57.055Z,100217.66
2023-04-22T17:24:25.320Z,100221.13
2023-04-22T17:26:53.404Z,100211.91
2023-04-22T17:29:23.220Z,100204.09
2023-04-22T17:31:51.618Z,100211.19
2023-04-22T17:34:19.844Z,100204.19
2023-04-22T17:36:47.972Z,100200.25
2023-04-22T17:39:16.090Z,100203.75
2023-04-22T17:41:44.843Z,100200.38
2023-04-22T17:44:12.934Z,100196.31
2023-04-22T17:46:42.483Z,100198.72
2023-04-22T17:49:10.742Z,100194.66
2023-04-22T17:51:38.822Z,100195.22
2023-04-22T17:54:07.415Z,100198.28
2023-04-22T17:56:35.647Z,100198.84
2023-04-22T17:59:03.869Z,100198.66
2023-04-22T18:01:32.028Z,100196.84
2023-04-22T18:04:01.714Z,100193.28
2023-04-22T18:06:30.564Z,100196.06
2023-04-22T18:08:58.637Z,100190.44
2023-04-22T18:11:27.902Z,100192.84
2023-04-22T18:13:56.068Z,100189.78
2023-04-22T18:16:24.125Z,100201.63
2023-04-22T18:18:52.261Z,100196.53
2023-04-22T18:21:21.805Z,100202.22
2023-04-22T18:23:50.132Z,100195.03
2023-04-22T18:26:18.210Z,100191.28
2023-04-22T18:28:46.294Z,100204.59
2023-04-22T18:31:14.402Z,100195.41
2023-04-22T18:33:42.628Z,100207.88
2023-04-22T18:36:11.013Z,100209.44
2023-04-22T18:38:42.413Z,100203.59
2023-04-22T18:41:12.899Z,100203.94
2023-04-22T18:43:41.473Z,100202.94
2023-04-22T18:46:09.616Z,100204.97
2023-04-22T18:48:37.677Z,100202.59
2023-04-22T18:51:06.045Z,100209.09
2023-04-22T18:53:34.832Z,100209.94
2023-04-22T18:56:04.349Z,100199.84
2023-04-22T18:58:32.446Z,100215.59
2023-04-22T19:01:00.700Z,100212.16
2023-04-22T19:03:29.147Z,100207.72
2023-04-22T19:05:57.368Z,100215.44
2023-04-22T19:08:25.796Z,100205.84
2023-04-22T19:10:53.965Z,100208.75
2023-04-22T19:15:56.701Z,100214.06
2023-04-22T19:18:24.928Z,100209.75
2023-04-22T19:20:53.031Z,100215.22
2023-04-22T19:23:21.226Z,100207.38
2023-04-22T19:25:49.293Z,100205.66
2023-04-22T19:28:17.383Z,100206.00
2023-04-22T19:30:47.002Z,100201.91
2023-04-22T19:33:15.519Z,100202.75
2023-04-22T19:35:43.611Z,100200.16
2023-04-22T19:38:12.273Z,100190.25
2023-04-22T19:40:40.316Z,100185.09
2023-04-22T19:43:08.405Z,100188.19
2023-04-22T19:45:36.470Z,100184.75
2023-04-22T19:48:07.146Z,100183.91
2023-04-22T19:50:35.549Z,100177.25
2023-04-22T19:53:05.536Z,100174.69
2023-04-22T19:55:36.125Z,100173.81
2023-04-22T19:58:04.498Z,100185.63
2023-04-22T20:00:33.130Z,100181.84
2023-04-22T20:03:01.810Z,100187.16
2023-04-22T20:05:31.863Z,100181.69
2023-04-22T20:08:01.876Z,100216.03
2023-04-22T20:10:31.212Z,100266.09
2023-04-22T20:12:59.903Z,100275.16
2023-04-22T20:15:28.284Z,100285.41
2023-04-22T20:17:56.709Z,100291.69
2023-04-22T20:20:25.637Z,100297.31
2023-04-22T20:22:55.760Z,100301.53
2023-04-22T20:25:24.888Z,100301.25
2023-04-22T20:27:53.101Z,100296.59
2023-04-22T20:30:21.331Z,100297.19
2023-04-22T20:32:49.658Z,100299.16
2023-04-22T20:35:18.158Z,100304.16
2023-04-22T20:37:47.326Z,100308.16
2023-04-22T20:40:18.864Z,100314.19
2023-04-22T20:42:47.008Z,100306.06
2023-04-22T20:45:17.844Z,100315.22
2023-04-22T20:47:46.210Z,100311.41
2023-04-22T20:50:16.004Z,100319.38
2023-04-22T20:52:44.323Z,100310.78
2023-04-22T20:55:12.557Z,100313.97
2023-04-22T20:57:42.321Z,100311.72
2023-04-22T21:00:11.583Z,100311.47
2023-04-22T21:02:40.461Z,100310.31
2023-04-22T21:05:11.183Z,100300.91
2023-04-22T21:07:39.902Z,100305.25
2023-04-22T21:10:09.610Z,100301.59
2023-04-22T21:12:38.967Z,100309.81
2023-04-22T21:15:10.048Z,100307.81
2023-04-22T21:17:39.858Z,100297.09
2023-04-22T21:20:10.271Z,100296.38
2023-04-22T21:22:38.675Z,100289.38
2023-04-22T21:25:08.408Z,100284.41
2023-04-22T21:27:37.112Z,100283.66
2023-04-22T21:30:06.730Z,100278.69
2023-04-22T21:32:40.462Z,100284.28
2023-04-22T21:35:09.252Z,100278.69
2023-04-22T21:37:37.474Z,100277.81
2023-04-22T21:40:08.575Z,100283.44
2023-04-22T21:42:36.648Z,100263.09
2023-04-22T21:45:05.259Z,100273.59
2023-04-22T21:47:33.376Z,100269.31
2023-04-22T21:50:02.866Z,100271.47
2023-04-22T21:52:30.975Z,100275.31
2023-04-22T21:54:59.046Z,100280.94
2023-04-22T21:57:27.313Z,100270.50
2023-04-22T21:59:55.402Z,100273.38
2023-04-22T22:02:23.637Z,100280.84
2023-04-22T22:04:54.297Z,100281.84
2023-04-22T22:07:23.847Z,100280.84
2023-04-22T22:09:52.904Z,100276.09
2023-04-22T22:12:23.243Z,100278.81
2023-04-22T22:14:51.295Z,100283.56
2023-04-22T22:17:19.685Z,100282.69
2023-04-22T22:19:48.667Z,100278.13
2023-04-22T22:22:16.746Z,100289.13
2023-04-22T22:24:46.494Z,100286.69
2023-04-22T22:27:14.591Z,100286.84
2023-04-22T22:29:42.702Z,100295.31
2023-04-22T22:32:11.112Z,100293.88
2023-04-22T22:34:39.442Z,100289.72
2023-04-22T22:37:07.798Z,100294.47
2023-04-22T22:39:36.234Z,100292.03
2023-04-22T22:42:05.886Z,100291.34
2023-04-22T22:44:34.005Z,100290.63
2023-04-22T22:47:02.350Z,100291.59
2023-04-22T22:49:30.566Z,100288.19
2023-04-22T22:51:58.660Z,100300.22
2023-04-22T22:54:26.752Z,100293.06
2023-04-22T22:56:54.843Z,100295.94
2023-04-22T22:59:24.312Z,100296.22
2023-04-22T23:01:52.444Z,100291.91
2023-04-22T23:04:21.099Z,100292.91
2023-04-22T23:06:49.447Z,100292.06
2023-04-22T23:09:19.070Z,100287.78
2023-04-22T23:11:49.126Z,100286.22
2023-04-22T23:14:17.833Z,100286.22
2023-04-22T23:16:47.554Z,100278.06
2023-04-22T23:19:17.028Z,100284.06
2023-04-22T23:21:45.765Z,100274.88
2023-04-22T23:24:15.606Z,100275.59
2023-04-22T23:26:44.058Z,100272.88
2023-04-22T23:29:12.637Z,100264.72
2023-04-22T23:31:41.330Z,100271.00
2023-04-22T23:34:11.020Z,100265.56
2023-04-22T23:36:39.410Z,100264.59
2023-04-22T23:39:08.009Z,100263.59
2023-04-22T23:41:36.123Z,100254.41
2023-04-22T23:44:04.191Z,100259.00
2023-04-22T23:46:32.393Z,100253.72
2023-04-22T23:49:01.464Z,100245.81
2023-04-22T23:51:30.931Z,100238.66
2023-04-22T23:53:58.991Z,100236.09
2023-04-22T23:56:27.456Z,100236.25
2023-04-22T23:58:56.230Z,100227.22
